createdAt,value
2019-05-28T00:01:53.996Z,14.70
2019-05-28T00:04:22.506Z,14.80
2019-05-28T00:06:51.054Z,14.90
2019-05-28T00:09:19.595Z,14.90
2019-05-28T00:11:48.153Z,14.90
2019-05-28T00:14:16.620Z,14.90
2019-05-28T00:16:45.381Z,15.00
2019-05-28T00:19:13.893Z,15.00
2019-05-28T00:21:42.345Z,15.00
2019-05-28T00:24:11.069Z,15.00
2019-05-28T00:26:39.521Z,15.00
2019-05-28T00:29:08.257Z,15.00
2019-05-28T00:31:36.761Z,14.90
2019-05-28T00:34:05.211Z,14.80
2019-05-28T00:36:33.655Z,14.80
2019-05-28T00:39:02.115Z,14.80
2019-05-28T00:41:30.589Z,14.80
2019-05-28T00:43:59.489Z,14.80
2019-05-28T00:46:27.934Z,14.70
2019-05-28T00:48:56.403Z,14.70
2019-05-28T00:51:24.865Z,14.70
2019-05-28T00:53:53.504Z,14.80
2019-05-28T00:56:22.363Z,14.80
2019-05-28T00:58:51.969Z,14.80
2019-05-28T01:01:20.843Z,14.70
2019-05-28T01:03:49.295Z,14.70
2019-05-28T01:06:17.775Z,14.80
2019-05-28T01:08:46.232Z,14.80
2019-05-28T01:11:14.687Z,14.90
2019-05-28T01:13:43.240Z,14.90
2019-05-28T01:16:11.714Z,14.90
2019-05-28T01:18:40.463Z,14.80
2019-05-28T01:21:09.916Z,14.90
2019-05-28T01:23:38.389Z,14.90
2019-05-28T01:26:07.290Z,14.90
2019-05-28T01:28:38.471Z,14.90
2019-05-28T01:31:06.948Z,14.90
2019-05-28T01:33:35.477Z,14.90
2019-05-28T01:36:04.082Z,15.00
2019-05-28T01:38:32.543Z,15.00
2019-05-28T01:41:01.107Z,15.00
2019-05-28T01:43:29.549Z,15.00
2019-05-28T01:45:58.065Z,15.00
2019-05-28T01:48:27.618Z,15.00
2019-05-28T01:50:56.114Z,15.00
2019-05-28T01:53:24.861Z,15.00
2019-05-28T01:55:53.342Z,15.00
2019-05-28T01:58:21.865Z,15.00
2019-05-28T02:00:50.367Z,15.00
2019-05-28T02:03:18.857Z,15.00
2019-05-28T02:05:47.336Z,15.00
2019-05-28T02:08:15.846Z,15.00
2019-05-28T02:10:44.309Z,15.10
2019-05-28T02:13:12.761Z,15.10
2019-05-28T02:15:41.577Z,15.10
2019-05-28T02:18:10.065Z,15.00
2019-05-28T02:20:38.552Z,15.00
2019-05-28T02:23:07.107Z,15.00
2019-05-28T02:25:35.644Z,14.90
2019-05-28T02:28:04.661Z,14.90
2019-05-28T02:30:33.178Z,14.90
2019-05-28T02:33:01.652Z,14.90
2019-05-28T02:35:30.208Z,14.90
2019-05-28T02:37:58.652Z,14.90
2019-05-28T02:40:27.117Z,15.00
2019-05-28T02:42:55.571Z,15.00
2019-05-28T02:45:24.677Z,15.10
2019-05-28T02:47:53.230Z,15.10
2019-05-28T02:50:41.309Z,15.00
2019-05-28T02:53:09.758Z,15.00
2019-05-28T02:55:39.152Z,15.00
2019-05-28T02:58:08.309Z,15.00
2019-05-28T03:00:37.410Z,15.00
2019-05-28T03:03:07.868Z,15.00
2019-05-28T03:05:37.738Z,15.00
2019-05-28T03:08:06.255Z,15.00
2019-05-28T03:11:01.721Z,15.00
2019-05-28T03:13:07.404Z,15.00
2019-05-28T03:15:38.970Z,15.10
2019-05-28T03:18:11.011Z,15.10
2019-05-28T03:20:42.186Z,15.10
2019-05-28T03:23:13.362Z,15.10
2019-05-28T03:25:42.261Z,15.20
2019-05-28T03:28:10.785Z,15.20
2019-05-28T03:30:39.316Z,15.10
2019-05-28T03:33:07.770Z,15.10
2019-05-28T03:35:38.238Z,15.10
2019-05-28T03:38:07.742Z,15.00
2019-05-28T03:40:41.564Z,15.00
2019-05-28T03:43:10.014Z,15.00
2019-05-28T03:45:38.836Z,15.00
2019-05-28T03:48:07.386Z,15.00
2019-05-28T03:50:35.853Z,15.00
2019-05-28T03:53:05.056Z,15.00
2019-05-28T03:55:33.589Z,15.00
2019-05-28T03:58:02.249Z,15.00
2019-05-28T04:00:30.744Z,15.10
2019-05-28T04:02:59.182Z,15.10
2019-05-28T04:05:27.694Z,15.10
2019-05-28T04:07:56.227Z,15.10
2019-05-28T04:10:24.801Z,15.20
2019-05-28T04:12:53.265Z,15.20
2019-05-28T04:15:21.853Z,15.30
2019-05-28T04:17:50.381Z,15.30
2019-05-28T04:20:19.363Z,15.30
2019-05-28T04:22:47.877Z,15.30
2019-05-28T04:25:16.483Z,15.40
2019-05-28T04:27:44.971Z,15.40
2019-05-28T04:30:16.212Z,15.40
2019-05-28T04:32:44.839Z,15.40
2019-05-28T04:35:13.681Z,15.40
2019-05-28T04:37:42.173Z,15.40
2019-05-28T04:40:10.838Z,15.40
2019-05-28T04:42:39.313Z,15.30
2019-05-28T04:45:08.916Z,15.40
2019-05-28T04:47:37.445Z,15.30
2019-05-28T04:50:06.669Z,15.40
2019-05-28T04:52:35.135Z,15.30
2019-05-28T04:55:04.726Z,15.40
2019-05-28T04:57:33.251Z,15.40
2019-05-28T05:00:01.699Z,15.40
2019-05-28T05:02:30.699Z,15.40
2019-05-28T05:04:59.246Z,15.40
2019-05-28T05:07:27.855Z,15.50
2019-05-28T05:09:56.474Z,15.50
2019-05-28T05:12:25.631Z,15.50
2019-05-28T05:14:54.186Z,15.60
2019-05-28T05:17:22.711Z,15.60
2019-05-28T05:19:51.153Z,15.60
2019-05-28T05:22:20.003Z,15.70
2019-05-28T05:24:48.565Z,15.80
2019-05-28T05:27:17.600Z,15.80
2019-05-28T05:29:46.575Z,15.90
2019-05-28T05:32:15.133Z,16.00
2019-05-28T05:34:44.265Z,16.00
2019-05-28T05:37:12.813Z,16.10
2019-05-28T05:39:41.266Z,16.10
2019-05-28T05:42:10.325Z,16.20
2019-05-28T05:44:38.933Z,16.30
2019-05-28T05:47:07.804Z,16.20
2019-05-28T05:49:36.334Z,16.30
2019-05-28T05:52:04.803Z,16.40
2019-05-28T05:54:33.621Z,16.40
2019-05-28T05:57:02.146Z,16.40
2019-05-28T05:59:30.863Z,16.40
2019-05-28T06:01:59.710Z,16.40
2019-05-28T06:04:28.431Z,16.30
2019-05-28T06:06:56.905Z,16.20
2019-05-28T06:09:25.425Z,16.20
2019-05-28T06:11:53.954Z,16.30
2019-05-28T06:14:22.404Z,16.20
2019-05-28T06:16:50.912Z,16.30
2019-05-28T06:19:20.022Z,16.20
2019-05-28T06:21:48.566Z,16.10
2019-05-28T06:24:17.398Z,16.00
2019-05-28T06:26:45.994Z,16.00
2019-05-28T06:29:14.862Z,16.10
2019-05-28T06:31:43.396Z,16.00
2019-05-28T06:34:11.916Z,16.10
2019-05-28T06:36:40.392Z,16.10
2019-05-28T06:39:08.905Z,16.20
2019-05-28T06:41:38.374Z,16.20
2019-05-28T06:44:06.965Z,16.20
2019-05-28T06:46:35.762Z,16.00
2019-05-28T06:49:04.316Z,15.90
2019-05-28T06:51:32.753Z,15.90
2019-05-28T06:54:01.290Z,15.90
2019-05-28T06:56:29.716Z,15.80
2019-05-28T06:58:58.184Z,15.70
2019-05-28T07:01:28.604Z,15.60
2019-05-28T07:04:12.769Z,15.50
2019-05-28T07:06:27.860Z,15.40
2019-05-28T07:08:56.355Z,15.40
2019-05-28T07:11:24.812Z,15.30
2019-05-28T07:13:53.406Z,15.20
2019-05-28T07:16:21.929Z,15.20
2019-05-28T07:18:50.454Z,15.20
2019-05-28T07:21:19.005Z,15.10
2019-05-28T07:23:47.520Z,15.00
2019-05-28T07:26:15.992Z,15.00
2019-05-28T07:28:44.625Z,15.00
2019-05-28T07:31:13.169Z,15.00
2019-05-28T07:33:41.711Z,14.70
2019-05-28T07:36:10.762Z,14.70
2019-05-28T07:38:39.687Z,14.60
2019-05-28T07:41:08.189Z,14.50
2019-05-28T07:43:36.681Z,14.50
2019-05-28T07:46:05.242Z,14.50
2019-05-28T07:48:33.800Z,14.60
2019-05-28T07:51:02.309Z,14.60
2019-05-28T07:53:40.161Z,14.60
2019-05-28T07:56:00.993Z,14.60
2019-05-28T07:58:29.520Z,14.60
2019-05-28T08:00:57.978Z,14.60
2019-05-28T08:03:26.450Z,14.70
2019-05-28T08:05:54.972Z,14.60
2019-05-28T08:08:24.540Z,14.60
2019-05-28T08:10:53.142Z,14.70
2019-05-28T08:13:21.761Z,14.70
2019-05-28T08:15:50.305Z,14.70
2019-05-28T08:18:18.876Z,14.70
2019-05-28T08:20:47.398Z,14.70
2019-05-28T08:23:15.869Z,14.70
2019-05-28T08:25:47.365Z,14.70
2019-05-28T08:28:19.728Z,14.70
2019-05-28T08:30:45.104Z,14.60
2019-05-28T08:33:13.711Z,14.60
2019-05-28T08:35:42.249Z,14.60
2019-05-28T08:38:10.775Z,14.70
2019-05-28T08:40:39.243Z,14.70
2019-05-28T08:43:08.001Z,14.80
2019-05-28T08:45:36.642Z,14.90
2019-05-28T08:48:05.165Z,15.00
2019-05-28T08:50:35.314Z,15.20
2019-05-28T08:53:04.077Z,15.20
2019-05-28T08:55:32.821Z,15.20
2019-05-28T08:58:01.910Z,15.30
2019-05-28T09:00:36.231Z,15.50
2019-05-28T09:03:05.419Z,15.70
2019-05-28T09:05:33.980Z,15.90
2019-05-28T09:08:02.717Z,16.00
2019-05-28T09:10:31.182Z,16.10
2019-05-28T09:12:59.819Z,16.10
2019-05-28T09:15:28.394Z,16.10
2019-05-28T09:17:56.919Z,16.20
2019-05-28T09:20:25.859Z,16.00
2019-05-28T09:22:54.366Z,15.90
2019-05-28T09:25:22.822Z,16.00
2019-05-28T09:27:51.331Z,16.10
2019-05-28T09:30:20.223Z,16.20
2019-05-28T09:32:48.906Z,16.40
2019-05-28T09:35:17.840Z,16.40
2019-05-28T09:37:46.685Z,16.50
2019-05-28T09:40:15.378Z,16.40
2019-05-28T09:42:43.820Z,16.30
2019-05-28T09:45:22.430Z,16.10
2019-05-28T09:47:43.107Z,15.90
2019-05-28T09:50:29.880Z,15.80
2019-05-28T09:52:54.505Z,15.70
2019-05-28T09:55:14.931Z,15.80
2019-05-28T09:57:47.761Z,16.00
2019-05-28T10:00:18.420Z,16.10
2019-05-28T10:02:46.951Z,16.10
2019-05-28T10:05:15.830Z,16.20
2019-05-28T10:07:44.265Z,16.30
2019-05-28T10:10:13.412Z,16.40
2019-05-28T10:12:41.944Z,16.50
2019-05-28T10:15:10.737Z,16.60
2019-05-28T10:17:39.205Z,16.70
2019-05-28T10:20:09.909Z,16.80
2019-05-28T10:22:38.440Z,16.80
2019-05-28T10:25:08.806Z,16.80
2019-05-28T10:27:37.373Z,17.00
2019-05-28T10:30:08.578Z,17.10
2019-05-28T10:32:37.200Z,17.30
2019-05-28T10:35:06.953Z,17.30
2019-05-28T10:37:35.501Z,17.50
2019-05-28T10:40:08.215Z,17.60
2019-05-28T10:42:37.468Z,17.60
2019-05-28T10:45:11.090Z,17.70
2019-05-28T10:47:39.785Z,17.70
2019-05-28T10:50:08.755Z,17.90
2019-05-28T10:52:37.497Z,17.90
2019-05-28T10:55:07.895Z,17.80
2019-05-28T10:57:36.504Z,17.80
2019-05-28T11:00:09.038Z,17.90
2019-05-28T11:02:37.598Z,17.90
2019-05-28T11:05:09.644Z,17.70
2019-05-28T11:07:38.204Z,17.70
2019-05-28T11:10:23.192Z,17.70
2019-05-28T11:12:38.325Z,17.80
2019-05-28T11:15:09.206Z,17.80
2019-05-28T11:17:37.780Z,17.80
2019-05-28T11:20:11.024Z,17.80
2019-05-28T11:22:39.761Z,17.80
2019-05-28T11:25:09.001Z,17.90
2019-05-28T11:27:37.530Z,18.00
2019-05-28T11:30:08.894Z,18.10
2019-05-28T11:32:37.426Z,18.20
2019-05-28T11:35:07.444Z,18.30
2019-05-28T11:37:35.975Z,18.20
2019-05-28T11:40:07.837Z,18.30
2019-05-28T11:42:36.437Z,18.40
2019-05-28T11:45:10.009Z,18.20
2019-05-28T11:47:39.939Z,18.10
2019-05-28T11:50:11.384Z,18.10
2019-05-28T11:52:40.007Z,17.90
2019-05-28T11:55:12.284Z,17.80
2019-05-28T11:57:40.827Z,17.60
2019-05-28T12:00:14.846Z,17.10
2019-05-28T12:02:43.496Z,16.70
2019-05-28T12:05:13.118Z,16.30
2019-05-28T12:07:41.594Z,15.90
2019-05-28T12:10:11.478Z,15.50
2019-05-28T12:12:40.164Z,15.30
2019-05-28T12:15:11.032Z,15.10
2019-05-28T12:17:43.848Z,14.90
2019-05-28T12:20:13.846Z,14.70
2019-05-28T12:22:42.896Z,14.80
2019-05-28T12:25:12.962Z,14.80
2019-05-28T12:27:41.868Z,14.90
2019-05-28T12:30:12.981Z,14.90
2019-05-28T12:33:00.786Z,14.90
2019-05-28T12:35:30.394Z,14.90
2019-05-28T12:37:59.410Z,14.90
2019-05-28T12:40:45.831Z,14.90
2019-05-28T12:42:58.388Z,14.80
2019-05-28T12:45:35.570Z,14.90
2019-05-28T12:48:10.213Z,15.10
2019-05-28T12:50:28.085Z,15.20
2019-05-28T12:52:57.223Z,15.40
2019-05-28T12:55:26.063Z,15.50
2019-05-28T12:57:54.591Z,15.80
2019-05-28T13:00:24.154Z,15.90
2019-05-28T13:02:52.683Z,16.00
2019-05-28T13:05:24.045Z,16.10
2019-05-28T13:08:07.634Z,16.10
2019-05-28T13:10:23.337Z,16.10
2019-05-28T13:12:52.013Z,16.10
2019-05-28T13:15:20.979Z,16.00
2019-05-28T13:17:50.083Z,15.90
2019-05-28T13:20:19.370Z,15.80
2019-05-28T13:22:47.956Z,15.80
2019-05-28T13:25:16.932Z,15.80
2019-05-28T13:27:45.380Z,15.80
2019-05-28T13:30:17.124Z,15.80
2019-05-28T13:32:46.035Z,15.90
2019-05-28T13:35:15.907Z,16.10
2019-05-28T13:37:44.492Z,16.40
2019-05-28T13:40:15.163Z,16.50
2019-05-28T13:42:43.986Z,16.80
2019-05-28T13:45:13.512Z,17.00
2019-05-28T13:47:42.019Z,17.10
2019-05-28T13:50:12.586Z,17.10
2019-05-28T13:52:41.135Z,17.10
2019-05-28T13:55:10.583Z,17.00
2019-05-28T13:57:39.850Z,17.00
2019-05-28T14:00:11.293Z,17.10
2019-05-28T14:02:44.841Z,17.20
2019-05-28T14:05:10.958Z,17.10
2019-05-28T14:07:39.436Z,17.10
2019-05-28T14:10:08.627Z,17.10
2019-05-28T14:12:37.251Z,17.10
2019-05-28T14:15:09.260Z,17.10
2019-05-28T14:17:37.778Z,17.10
2019-05-28T14:20:09.705Z,17.30
2019-05-28T14:22:39.395Z,17.50
2019-05-28T14:25:09.310Z,17.50
2019-05-28T14:27:37.833Z,17.40
2019-05-28T14:30:11.639Z,17.30
2019-05-28T14:32:40.126Z,17.30
2019-05-28T14:35:08.915Z,17.40
2019-05-28T14:37:37.411Z,17.30
2019-05-28T14:40:07.823Z,17.40
2019-05-28T14:42:36.745Z,17.40
2019-05-28T14:45:09.198Z,17.40
2019-05-28T14:47:37.769Z,17.40
2019-05-28T14:50:07.452Z,17.30
2019-05-28T14:52:36.186Z,17.50
2019-05-28T14:55:08.432Z,17.60
2019-05-28T14:57:37.021Z,17.70
2019-05-28T15:00:11.162Z,17.60
2019-05-28T15:02:39.667Z,17.70
2019-05-28T15:05:11.294Z,17.70
2019-05-28T15:07:39.885Z,17.70
2019-05-28T15:10:09.809Z,17.80
2019-05-28T15:12:38.468Z,17.80
2019-05-28T15:15:09.359Z,17.90
2019-05-28T15:17:38.496Z,18.00
2019-05-28T15:20:08.070Z,18.00
2019-05-28T15:22:37.010Z,18.00
2019-05-28T15:25:06.997Z,17.80
2019-05-28T15:27:35.638Z,17.70
2019-05-28T15:30:07.165Z,17.70
2019-05-28T15:32:35.716Z,17.60
2019-05-28T15:35:06.341Z,17.60
2019-05-28T15:37:34.906Z,17.60
2019-05-28T15:40:05.194Z,17.60
2019-05-28T15:42:33.745Z,17.70
2019-05-28T15:45:02.282Z,17.70
2019-05-28T15:47:30.725Z,17.70
2019-05-28T15:49:59.186Z,17.70
2019-05-28T15:52:28.129Z,17.60
2019-05-28T15:54:56.730Z,17.60
2019-05-28T15:57:25.307Z,17.50
2019-05-28T15:59:53.809Z,17.40
2019-05-28T16:02:22.329Z,17.40
2019-05-28T16:04:50.860Z,17.40
2019-05-28T16:07:19.464Z,17.40
2019-05-28T16:09:56.153Z,17.50
2019-05-28T16:12:18.359Z,17.40
2019-05-28T16:14:46.881Z,17.40
2019-05-28T16:17:15.336Z,17.50
2019-05-28T16:19:43.835Z,17.50
2019-05-28T16:22:12.785Z,17.50
2019-05-28T16:24:41.236Z,17.50
2019-05-28T16:27:09.914Z,17.60
2019-05-28T16:29:38.459Z,17.70
2019-05-28T16:32:07.096Z,17.80
2019-05-28T16:34:35.931Z,17.80
2019-05-28T16:37:04.557Z,17.80
2019-05-28T16:39:33.422Z,17.80
2019-05-28T16:42:01.938Z,17.80
2019-05-28T16:44:30.477Z,17.80
2019-05-28T16:47:15.239Z,17.80
2019-05-28T16:49:30.158Z,17.90
2019-05-28T16:51:58.998Z,17.90
2019-05-28T16:54:27.558Z,17.80
2019-05-28T16:56:57.726Z,17.70
2019-05-28T16:59:26.197Z,17.70
2019-05-28T17:01:54.672Z,17.70
2019-05-28T17:04:23.135Z,17.70
2019-05-28T17:06:51.741Z,17.70
2019-05-28T17:09:21.256Z,17.70
2019-05-28T17:11:49.814Z,17.60
2019-05-28T17:14:18.326Z,17.50
2019-05-28T17:16:46.802Z,17.40
2019-05-28T17:19:15.310Z,17.20
2019-05-28T17:21:45.201Z,17.00
2019-05-28T17:24:13.924Z,16.80
2019-05-28T17:26:42.663Z,16.50
2019-05-28T17:29:11.193Z,16.20
2019-05-28T17:31:40.185Z,16.00
2019-05-28T17:34:09.210Z,15.80
2019-05-28T17:36:37.763Z,15.80
2019-05-28T17:39:07.972Z,15.60
2019-05-28T17:41:36.830Z,15.60
2019-05-28T17:44:05.413Z,15.50
2019-05-28T17:46:33.966Z,15.60
2019-05-28T17:49:02.446Z,15.60
2019-05-28T17:51:31.345Z,15.60
2019-05-28T17:53:59.818Z,15.60
2019-05-28T17:56:28.375Z,15.60
2019-05-28T17:58:56.848Z,15.50
2019-05-28T18:01:25.360Z,15.50
2019-05-28T18:03:53.849Z,15.30
2019-05-28T18:06:22.403Z,15.30
2019-05-28T18:08:50.865Z,15.30
2019-05-28T18:11:19.455Z,15.30
2019-05-28T18:13:48.381Z,15.20
2019-05-28T18:16:16.872Z,15.20
2019-05-28T18:18:46.808Z,15.10
2019-05-28T18:21:15.336Z,15.20
2019-05-28T18:23:43.805Z,15.10
2019-05-28T18:26:12.322Z,15.00
2019-05-28T18:28:40.971Z,15.00
2019-05-28T18:31:09.469Z,15.00
2019-05-28T18:33:37.932Z,15.00
2019-05-28T18:36:06.844Z,14.90
2019-05-28T18:38:43.405Z,14.80
2019-05-28T18:41:20.650Z,14.80
2019-05-28T18:43:36.252Z,14.80
2019-05-28T18:46:05.217Z,14.80
2019-05-28T18:48:38.029Z,14.70
2019-05-28T18:51:03.870Z,14.70
2019-05-28T18:53:32.568Z,14.60
2019-05-28T18:56:16.558Z,14.60
2019-05-28T18:58:35.361Z,14.60
2019-05-28T19:01:02.251Z,14.60
2019-05-28T19:03:30.813Z,14.50
2019-05-28T19:05:59.277Z,14.50
2019-05-28T19:08:28.066Z,14.40
2019-05-28T19:10:59.057Z,14.40
2019-05-28T19:13:26.705Z,14.30
2019-05-28T19:15:55.257Z,14.30
2019-05-28T19:18:23.725Z,14.30
2019-05-28T19:20:52.161Z,14.20
2019-05-28T19:23:20.705Z,14.10
2019-05-28T19:25:49.172Z,14.00
2019-05-28T19:28:17.681Z,13.80
2019-05-28T19:30:46.142Z,13.80
2019-05-28T19:33:14.958Z,13.80
2019-05-28T19:35:43.508Z,13.70
2019-05-28T19:38:12.196Z,13.70
2019-05-28T19:40:43.026Z,13.60
2019-05-28T19:43:14.313Z,13.60
2019-05-28T19:45:42.854Z,13.60
2019-05-28T19:48:11.393Z,13.50
2019-05-28T19:50:39.889Z,13.50
2019-05-28T19:53:08.349Z,13.60
2019-05-28T19:55:36.802Z,13.60
2019-05-28T19:58:06.817Z,13.50
2019-05-28T20:00:35.531Z,13.50
2019-05-28T20:03:03.932Z,13.50
2019-05-28T20:05:32.360Z,13.50
2019-05-28T20:08:00.898Z,13.50
2019-05-28T20:10:29.612Z,13.60
2019-05-28T20:13:07.867Z,13.50
2019-05-28T20:15:36.104Z,13.50
2019-05-28T20:18:04.979Z,13.50
2019-05-28T20:20:33.392Z,13.40
2019-05-28T20:23:01.835Z,13.40
2019-05-28T20:25:30.232Z,13.40
2019-05-28T20:27:58.638Z,13.40
2019-05-28T20:30:27.137Z,13.40
2019-05-28T20:32:55.694Z,13.50
2019-05-28T20:35:24.143Z,13.50
2019-05-28T20:37:52.535Z,13.40
2019-05-28T20:40:21.318Z,13.40
2019-05-28T20:42:49.792Z,13.30
2019-05-28T20:45:18.440Z,13.30
2019-05-28T20:47:46.864Z,13.30
2019-05-28T20:50:15.709Z,13.30
2019-05-28T20:52:44.151Z,13.20
2019-05-28T20:55:14.818Z,13.20
2019-05-28T20:57:43.273Z,13.20
2019-05-28T21:00:12.390Z,13.10
2019-05-28T21:02:40.789Z,13.10
2019-05-28T21:05:09.848Z,13.10
2019-05-28T21:07:38.253Z,13.10
2019-05-28T21:10:07.807Z,13.10
2019-05-28T21:12:43.850Z,13.20
2019-05-28T21:15:15.712Z,13.10
2019-05-28T21:17:42.118Z,13.10
2019-05-28T21:20:10.916Z,13.20
2019-05-28T21:22:39.342Z,13.20
2019-05-28T21:25:08.460Z,13.20
2019-05-28T21:27:37.078Z,13.20
2019-05-28T21:30:06.938Z,13.20
2019-05-28T21:32:35.517Z,13.20
2019-05-28T21:35:07.384Z,13.20
2019-05-28T21:37:35.940Z,13.30
2019-05-28T21:40:06.464Z,13.30
2019-05-28T21:42:39.300Z,13.30
2019-05-28T21:45:08.653Z,13.20
2019-05-28T21:47:37.181Z,13.10
2019-05-28T21:50:09.852Z,13.10
2019-05-28T21:52:38.261Z,13.10
2019-05-28T21:55:08.180Z,13.10
2019-05-28T21:57:36.681Z,13.10
2019-05-28T22:00:28.058Z,13.10
2019-05-28T22:02:56.541Z,13.20
2019-05-28T22:05:24.968Z,13.20
2019-05-28T22:07:53.447Z,13.20
2019-05-28T22:10:21.882Z,13.30
2019-05-28T22:12:50.311Z,13.30
2019-05-28T22:15:19.150Z,13.30
2019-05-28T22:17:47.844Z,13.30
2019-05-28T22:20:16.392Z,13.20
2019-05-28T22:22:44.818Z,13.10
2019-05-28T22:25:13.296Z,13.10
2019-05-28T22:27:42.069Z,13.10
2019-05-28T22:30:12.132Z,13.10
2019-05-28T22:32:40.563Z,13.00
2019-05-28T22:35:09.521Z,13.00
2019-05-28T22:37:38.008Z,12.90
2019-05-28T22:40:09.409Z,12.90
2019-05-28T22:42:37.830Z,12.90
2019-05-28T22:45:07.383Z,12.90
2019-05-28T22:47:35.799Z,12.80
2019-05-28T22:50:19.673Z,12.80
2019-05-28T22:52:37.776Z,12.80
2019-05-28T22:55:08.194Z,12.80
2019-05-28T22:57:36.689Z,12.80
2019-05-28T23:00:08.813Z,12.80
2019-05-28T23:02:37.449Z,12.80
2019-05-28T23:05:07.241Z,12.90
2019-05-28T23:07:35.889Z,12.90
2019-05-28T23:10:06.201Z,12.90
2019-05-28T23:12:34.708Z,12.90
2019-05-28T23:15:03.941Z,12.80
2019-05-28T23:17:32.458Z,12.80
2019-05-28T23:20:00.873Z,12.80
2019-05-28T23:22:29.282Z,12.80
2019-05-28T23:24:57.698Z,12.70
2019-05-28T23:27:26.101Z,12.70
2019-05-28T23:29:54.514Z,12.70
2019-05-28T23:32:22.918Z,12.80
2019-05-28T23:34:51.333Z,12.70
2019-05-28T23:37:19.744Z,12.70
2019-05-28T23:39:48.166Z,12.70
2019-05-28T23:42:16.581Z,12.70
2019-05-28T23:44:45.057Z,12.70
2019-05-28T23:47:14.308Z,12.70
2019-05-28T23:49:42.937Z,12.70
2019-05-28T23:52:11.346Z,12.60
2019-05-28T23:54:39.765Z,12.60
2019-05-28T23:57:08.441Z,12.60
2019-05-28T23:59:36.860Z,12.60
